Historyczne dane pomiarowe

Dodano dane terminowe – wersja testowa.

Dane z okresu 1951-2019

Wersja bazy: 1.34 [2019-03-16, lista zmian], aktualizacja planowana na 2019-04-15

Dane meteo z obszaru Polski uzyskane na podstawie danych udostępnionych przez Instytut Meteorologii i Gospodarki Wodnej – Państwowy Instytut Badawczy.

 

Wybierz Datę:    

       

TemperaturaWilgotnośćWiatrCiśnienieOpadyŚniegCzas trwania zjawisk
 Stacja t tx tn tng RH VA  wxwx mslp ppp RRR   cm mm wxwxwxwxwxwxwx
1999-08-14 12.4 20.2 5.5 5.4 45.0- 3.7 2.7---- 0.4------------
1999-08-13 13.0 17.3 9.5 9.2 70.0- 6.7 2.0---- 0.0------------
1999-08-12 14.5 17.8 12.0 11.2 66.0- 3.3 1.0---- 0.0------------
1999-08-11 16.8 20.7 12.5 12.5 80.0- 6.3 2.3---- 0.0------------
1999-08-10 18.8 25.3 13.5 13.5 83.8- 8.0 0.3---- 2.3------------
1999-08-09 20.7 26.9 16.1 16.1 75.0- 3.0 0.0---- 2.5------------
1999-08-08 21.0 27.3 14.5 14.5 70.0- 3.3 0.7---- 0.0------------
1999-08-07 19.3 28.3 13.0 13.0 72.8- 2.7 0.0---- 6.2------------
1999-08-06 20.4 27.8 14.5 6.7 67.0- 4.0 1.0---- 0.0------------
1999-08-05 16.5 24.9 7.0 5.1 63.5- 4.7 0.0---- 0.0------------
1999-08-04 16.5 24.8 8.5 8.2 59.5- 0.0 0.0---- 0.0------------
1999-08-03 17.3 24.8 9.0 6.2 61.8- 0.0 0.0---- 0.0------------
1999-08-02 16.1 21.2 9.0 8.2 71.8- 3.7 0.0---- 0.0------------
1999-08-01 16.5 23.7 9.0 7.1 61.0- 3.0 1.7---- 0.0------------
1999-07-31 17.3 27.8 8.0 4.1 64.3- 1.3 0.0---- 0.0------------
1999-07-30 15.3 22.2 8.0 7.1 72.5- 2.7 2.0---- 0.0------------
1999-07-29 15.4 20.8 9.0 9.0 69.0- 5.0 2.7---- 0.0------------
1999-07-28 16.5 21.7 10.0 8.2 67.5- 2.3 2.7---- 0.0------------
1999-07-27 17.5 21.6 14.5 11.2 73.0- 7.7 2.3---- 0.0------------
1999-07-26 17.7 24.8 10.5 10.2 66.5- 2.0 1.3---- 0.0------------
1999-07-25 14.8 22.7 7.5 5.1 69.3- 2.3 1.3---- 0.0------------
1999-07-24 15.2 17.8 12.0 10.2 75.3- 7.7 2.7---- 0.0------------
1999-07-23 14.0 18.3 11.0 8.7 73.0- 8.0 2.0---- 0.0------------
1999-07-22 17.1 21.7 12.2 10.0 65.3- 7.7 2.7---- 0.0------------
1999-07-21 20.0 25.8 14.5 14.1 75.0- 5.0 2.3---- 0.0------------
1999-07-20 19.0 28.8 12.5 10.2 69.0- 2.7 2.3---- 23.0------------
1999-07-19 19.5 26.8 11.5 10.7 57.5- 2.0 2.7---- 0.0------------
1999-07-18 18.4 25.3 10.2 9.5 57.5- 2.0 1.7---- 0.0------------
1999-07-17 15.6 22.0 8.5 8.2 61.8- 1.3 2.7---- 0.0------------
1999-07-16 14.2 19.7 8.0 8.0 73.3- 8.0 2.0---- 1.0------------
1999-07-15 14.7 18.3 11.5 9.7 76.0- 8.0 2.0---- 0.9------------
1999-07-14 18.6 23.2 14.6 12.6 81.5- 7.3 2.7---- 6.0------------
1999-07-13 20.3 24.9 14.1 10.1 70.5- 5.7 2.7---- 0.0------------
1999-07-12 18.8 24.8 12.0 10.2 80.8- 5.0 2.7---- 0.0------------
1999-07-11 18.0 20.0 15.6 13.6 79.5- 7.7 4.0---- 0.0------------
1999-07-10 17.9 21.1 15.0 10.1 84.8- 7.3 6.0---- 0.0------------
1999-07-09 15.6 17.3 13.0 13.0 92.0- 8.0 2.0---- 13.4------------
1999-07-08 14.2 15.9 13.0 13.0 90.5- 8.0 2.7---- 17.4------------
1999-07-07 17.4 22.4 15.0 14.5 78.5- 8.0 2.7---- 16.2------------
1999-07-06 24.1 28.8 21.0 20.0 63.8- 5.3 6.0---- 30.6------------
1999-07-05 23.3 28.8 17.6 16.0 56.3- 1.0 6.0---- 0.0------------
1999-07-04 23.9 30.8 16.1 14.1 58.0- 2.3 3.3---- 0.0------------
1999-07-03 18.1 24.8 11.0 10.2 68.0- 1.7 2.0---- 0.0------------
1999-07-02 17.2 21.7 12.5 12.2 81.0- 6.3 2.3---- 0.0------------
1999-07-01 18.1 23.7 13.5 12.2 75.5- 7.0 2.7---- 10.4------------
1999-06-30 18.4 25.8 11.5 11.2 58.0- 1.0 2.0---- 0.0------------
1999-06-29 17.1 23.7 10.5 10.2 65.3- 4.7 2.0---- 0.0------------
1999-06-28 18.6 23.2 14.0 13.1 78.3- 6.0 3.0---- 2.5------------
1999-06-27 18.9 21.7 16.1 13.6 60.5- 7.3 5.7---- 10.0------------
1999-06-26 16.2 22.2 9.0 5.2 73.8- 2.7 0.3---- 0.0------------
1999-06-25 10.7 16.8 5.0 4.6 78.3- 7.3 2.0---- 20.0------------
1999-06-24 10.0 14.9 4.0 3.1 75.3- 5.7 2.7---- 0.0------------
1999-06-23 11.7 16.3 7.5 6.1 70.3- 6.7 5.3---- 0.0------------
1999-06-22 8.0 11.0 6.5 4.1 93.0- 8.0 5.0---- 36.3------------
1999-06-21 14.0 18.8 10.5 8.2 73.5- 7.3 1.7---- 21.0------------
1999-06-20 15.2 19.4 12.0 10.2 77.0- 8.0 2.7---- 0.0------------
1999-06-19 13.4 15.8 11.0 7.1 89.0- 8.0 2.0---- 1.1------------
1999-06-18 14.3 18.4 12.0 8.2 87.3- 8.0 2.0---- 17.6------------
1999-06-17 15.7 19.2 11.0 10.2 82.5- 7.3 1.7---- 0.0------------
1999-06-16 15.1 17.3 13.0 10.2 91.3- 8.0 2.0---- 1.8------------
428.4 ms

 

Źródłem pochodzenia danych jest Instytut Meteorologii i Gospodarki Wodnej – Państwowy Instytut Badawczy. Dane Instytutu Meteorologii i Gospodarki Wodnej – Państwowego Instytutu Badawczego zostały przetworzone.

Dane źródłowe można odnaleźć na stronie https://dane.imgw.pl